createdAt,value
2022-09-28T00:00:14.141Z,97.40
2022-09-28T00:03:15.698Z,97.44
2022-09-28T00:06:05.315Z,97.41
2022-09-28T00:08:49.578Z,97.34
2022-09-28T00:11:31.231Z,97.32
2022-09-28T00:14:13.495Z,97.26
2022-09-28T00:16:55.416Z,97.21
2022-09-28T00:19:37.107Z,97.35
2022-09-28T00:22:18.798Z,97.32
2022-09-28T00:25:00.489Z,97.29
2022-09-28T00:27:42.306Z,97.36
2022-09-28T00:30:24.074Z,97.31
2022-09-28T00:33:05.971Z,97.38
2022-09-28T00:35:54.318Z,97.16
2022-09-28T00:38:36.214Z,97.15
2022-09-28T00:41:18.201Z,97.28
2022-09-28T00:44:32.056Z,97.21
2022-09-28T00:47:19.954Z,97.24
2022-09-28T00:50:07.018Z,97.21
2022-09-28T00:53:10.921Z,97.16
2022-09-28T00:55:57.430Z,97.12
2022-09-28T00:58:46.591Z,97.09
2022-09-28T01:01:28.794Z,97.08
2022-09-28T01:04:10.895Z,96.96
2022-09-28T01:06:52.995Z,97.07
2022-09-28T01:09:38.679Z,96.90
2022-09-28T01:12:20.575Z,97.16
2022-09-28T01:15:03.705Z,97.06
2022-09-28T01:18:00.751Z,97.07
2022-09-28T01:21:14.902Z,96.85
2022-09-28T01:24:11.009Z,96.80
2022-09-28T01:27:27.027Z,96.91
2022-09-28T01:30:17.249Z,96.76
2022-09-28T01:33:05.794Z,96.44
2022-09-28T01:36:02.923Z,96.42
2022-09-28T01:38:55.877Z,96.31
2022-09-28T01:41:41.564Z,96.12
2022-09-28T01:44:26.223Z,95.66
2022-09-28T01:47:12.537Z,95.60
2022-09-28T01:50:09.982Z,95.45
2022-09-28T01:53:21.501Z,95.47
2022-09-28T01:56:16.279Z,95.42
2022-09-28T01:59:06.739Z,95.22
2022-09-28T02:01:57.730Z,95.71
2022-09-28T02:04:49.810Z,95.40
2022-09-28T02:07:45.328Z,95.83
2022-09-28T02:10:46.371Z,96.26
2022-09-28T02:13:37.689Z,96.33
2022-09-28T02:16:32.720Z,95.87
2022-09-28T02:19:21.445Z,95.70
2022-09-28T02:22:25.255Z,95.93
2022-09-28T02:25:29.211Z,95.50
2022-09-28T02:28:13.683Z,95.22
2022-09-28T02:30:55.314Z,95.06
2022-09-28T02:33:40.816Z,95.66
2022-09-28T02:36:24.930Z,95.90
2022-09-28T02:39:14.143Z,96.30
2022-09-28T02:42:21.399Z,95.76
2022-09-28T02:45:48.419Z,96.33
2022-09-28T02:49:17.275Z,96.21
2022-09-28T02:52:24.952Z,96.18
2022-09-28T02:55:19.133Z,96.50
2022-09-28T02:58:07.277Z,96.83
2022-09-28T03:01:02.194Z,96.79
2022-09-28T03:04:17.353Z,96.61
2022-09-28T03:07:11.535Z,96.57
2022-09-28T03:10:02.898Z,96.86
2022-09-28T03:12:48.406Z,96.78
2022-09-28T03:15:33.630Z,96.30
2022-09-28T03:18:15.507Z,96.30
2022-09-28T03:20:57.870Z,96.28
2022-09-28T03:23:41.475Z,95.87
2022-09-28T03:26:23.240Z,95.71
2022-09-28T03:29:05.338Z,95.62
2022-09-28T03:31:48.117Z,95.67
2022-09-28T03:34:29.850Z,95.50
2022-09-28T03:37:11.844Z,95.98
2022-09-28T03:39:53.842Z,95.91
2022-09-28T03:42:37.016Z,95.80
2022-09-28T03:45:19.143Z,96.12
2022-09-28T03:48:03.115Z,96.03
2022-09-28T03:50:44.805Z,96.66
2022-09-28T03:53:26.597Z,96.86
2022-09-28T03:56:14.231Z,96.90
2022-09-28T03:58:56.533Z,96.86
2022-09-28T04:01:38.222Z,96.49
2022-09-28T04:04:20.326Z,96.76
2022-09-28T04:07:02.119Z,96.56
2022-09-28T04:09:43.808Z,96.52
2022-09-28T04:12:25.499Z,95.30
2022-09-28T04:15:07.811Z,95.66
2022-09-28T04:17:49.598Z,95.39
2022-09-28T04:20:48.390Z,95.27
2022-09-28T04:23:30.903Z,95.39
2022-09-28T04:26:19.062Z,96.01
2022-09-28T04:29:16.232Z,95.67
2022-09-28T04:32:02.417Z,95.52
2022-09-28T04:34:50.129Z,95.60
2022-09-28T04:37:31.816Z,95.03
2022-09-28T04:40:13.609Z,95.04
2022-09-28T04:42:56.840Z,95.28
2022-09-28T04:45:39.790Z,96.03
2022-09-28T04:48:25.236Z,96.96
2022-09-28T04:51:20.034Z,97.45
2022-09-28T04:54:01.699Z,97.48
2022-09-28T04:56:43.362Z,97.90
2022-09-28T04:59:25.108Z,97.79
2022-09-28T05:02:07.130Z,97.92
2022-09-28T05:05:08.157Z,97.77
2022-09-28T05:07:58.995Z,97.86
2022-09-28T05:10:40.850Z,98.20
2022-09-28T05:13:22.848Z,98.06
2022-09-28T05:16:05.708Z,98.30
2022-09-28T05:18:57.426Z,98.09
2022-09-28T05:21:39.240Z,97.87
2022-09-28T05:24:20.894Z,97.65
2022-09-28T05:27:05.893Z,97.89
2022-09-28T05:29:52.406Z,97.87
2022-09-28T05:32:46.325Z,98.12
2022-09-28T05:35:40.819Z,98.18
2022-09-28T05:38:22.816Z,98.05
2022-09-28T05:41:06.821Z,98.39
2022-09-28T05:43:48.858Z,98.26
2022-09-28T05:46:30.991Z,98.54
2022-09-28T05:49:15.107Z,99.09
2022-09-28T05:56:24.048Z,99.09
2022-09-28T05:59:09.544Z,99.26
2022-09-28T06:01:51.747Z,99.17
2022-09-28T06:04:33.643Z,99.53
2022-09-28T06:07:15.642Z,99.42
2022-09-28T06:09:58.317Z,99.81
2022-09-28T06:13:06.879Z,100.00
2022-09-28T06:15:48.567Z,100.00
2022-09-28T06:18:30.259Z,99.97
2022-09-28T06:21:32.224Z,99.92
2022-09-28T06:24:14.061Z,100.00
2022-09-28T06:26:55.913Z,100.00
2022-09-28T06:29:37.605Z,100.00
2022-09-28T06:32:19.910Z,100.00
2022-09-28T06:35:03.855Z,100.00
2022-09-28T06:37:45.645Z,99.98
2022-09-28T06:40:28.196Z,99.96
2022-09-28T06:43:14.890Z,99.96
2022-09-28T06:46:15.782Z,100.00
2022-09-28T06:49:09.479Z,100.00
2022-09-28T06:52:29.468Z,99.91
2022-09-28T06:55:28.670Z,99.97
2022-09-28T06:58:14.997Z,99.83
2022-09-28T07:00:59.891Z,99.96
2022-09-28T07:03:43.572Z,100.00
2022-09-28T07:06:37.459Z,100.00
2022-09-28T07:09:43.730Z,100.00
2022-09-28T07:12:38.004Z,100.00
2022-09-28T07:15:36.691Z,100.00
2022-09-28T07:18:18.856Z,100.00
2022-09-28T07:21:02.941Z,99.37
2022-09-28T07:23:53.491Z,97.43
2022-09-28T07:26:38.508Z,95.98
2022-09-28T07:29:28.493Z,95.17
2022-09-28T07:32:28.925Z,95.70
2022-09-28T07:35:22.699Z,96.47
2022-09-28T07:38:08.076Z,96.73
2022-09-28T07:41:08.579Z,94.50
2022-09-28T07:43:50.917Z,92.81
2022-09-28T07:46:37.238Z,91.01
2022-09-28T07:49:33.016Z,87.64
2022-09-28T07:52:28.961Z,85.86
2022-09-28T07:55:24.884Z,85.04
2022-09-28T07:58:22.858Z,84.23
2022-09-28T08:01:17.794Z,85.04
2022-09-28T08:03:59.654Z,85.63
2022-09-28T08:06:41.450Z,85.76
2022-09-28T08:09:25.215Z,86.28
2022-09-28T08:12:42.205Z,84.07
2022-09-28T08:15:43.250Z,84.57
2022-09-28T08:18:32.006Z,83.73
2022-09-28T08:21:32.640Z,83.12
2022-09-28T08:24:16.568Z,82.69
2022-09-28T08:26:59.164Z,83.52
2022-09-28T08:29:43.550Z,83.94
2022-09-28T08:32:51.046Z,84.82
2022-09-28T08:36:01.308Z,84.69
2022-09-28T08:39:01.941Z,84.74
2022-09-28T08:42:10.973Z,84.41
2022-09-28T08:45:15.475Z,84.67
2022-09-28T08:48:40.815Z,83.61
2022-09-28T08:51:50.781Z,80.43
2022-09-28T08:54:49.558Z,77.68
2022-09-28T08:57:58.385Z,78.25
2022-09-28T09:00:50.296Z,78.54
2022-09-28T09:03:36.412Z,78.05
2022-09-28T09:07:06.539Z,78.72
2022-09-28T09:10:28.782Z,78.81
2022-09-28T09:13:31.666Z,77.59
2022-09-28T09:16:42.325Z,77.66
2022-09-28T09:20:04.484Z,78.25
2022-09-28T09:23:12.722Z,77.78
2022-09-28T09:26:03.949Z,78.18
2022-09-28T09:28:56.449Z,76.95
2022-09-28T09:32:27.599Z,76.13
2022-09-28T09:35:41.959Z,73.72
2022-09-28T09:39:08.498Z,71.47
2022-09-28T09:42:51.529Z,69.22
2022-09-28T09:46:17.014Z,67.79
2022-09-28T09:49:45.329Z,65.23
2022-09-28T09:52:46.783Z,66.33
2022-09-28T09:55:42.195Z,67.16
2022-09-28T09:58:52.999Z,67.09
2022-09-28T10:01:41.240Z,64.76
2022-09-28T10:04:44.552Z,64.10
2022-09-28T10:07:45.046Z,65.94
2022-09-28T10:10:34.517Z,64.10
2022-09-28T10:13:25.525Z,63.74
2022-09-28T10:16:09.471Z,63.68
2022-09-28T10:19:00.682Z,63.84
2022-09-28T10:22:16.678Z,61.89
2022-09-28T10:25:00.145Z,61.70
2022-09-28T10:27:46.200Z,61.29
2022-09-28T10:30:28.674Z,62.51
2022-09-28T10:33:29.454Z,60.20
2022-09-28T10:36:11.658Z,61.77
2022-09-28T10:38:54.652Z,61.24
2022-09-28T10:41:50.585Z,61.59
2022-09-28T10:44:48.881Z,63.38
2022-09-28T10:47:44.501Z,62.96
2022-09-28T10:50:28.259Z,63.31
2022-09-28T10:53:20.658Z,63.85
2022-09-28T10:56:22.774Z,64.75
2022-09-28T10:59:30.760Z,64.60
2022-09-28T11:02:36.333Z,63.26
2022-09-28T11:05:33.874Z,63.31
2022-09-28T11:08:39.728Z,63.28
2022-09-28T11:11:23.543Z,62.81
2022-09-28T11:14:39.777Z,63.37
2022-09-28T11:17:40.750Z,63.41
2022-09-28T11:20:28.164Z,63.04
2022-09-28T11:23:23.037Z,62.25
2022-09-28T11:26:09.203Z,63.00
2022-09-28T11:28:53.116Z,64.15
2022-09-28T11:31:47.674Z,64.45
2022-09-28T11:34:58.511Z,64.32
2022-09-28T11:38:13.211Z,64.87
2022-09-28T11:41:26.130Z,65.87
2022-09-28T11:44:18.575Z,65.87
2022-09-28T11:47:33.546Z,66.23
2022-09-28T11:50:32.440Z,66.86
2022-09-28T11:53:30.412Z,66.34
2022-09-28T11:56:32.889Z,66.36
2022-09-28T11:59:27.892Z,65.72
2022-09-28T12:02:17.356Z,65.33
2022-09-28T12:05:21.047Z,64.96
2022-09-28T12:08:19.046Z,65.25
2022-09-28T12:11:24.294Z,64.71
2022-09-28T12:14:38.414Z,63.31
2022-09-28T12:17:39.058Z,63.12
2022-09-28T12:20:30.085Z,63.72
2022-09-28T12:23:35.943Z,64.12
2022-09-28T12:26:37.175Z,64.32
2022-09-28T12:29:28.509Z,64.16
2022-09-28T12:32:12.965Z,64.12
2022-09-28T12:34:54.656Z,64.18
2022-09-28T12:37:56.622Z,64.43
2022-09-28T12:40:58.301Z,64.65
2022-09-28T12:44:09.601Z,64.63
2022-09-28T12:47:08.929Z,65.36
2022-09-28T12:50:39.043Z,66.03
2022-09-28T12:53:50.078Z,66.27
2022-09-28T12:56:54.340Z,66.00
2022-09-28T12:59:42.342Z,66.06
2022-09-28T13:02:41.926Z,66.10
2022-09-28T13:06:04.597Z,66.26
2022-09-28T13:09:21.123Z,66.64
2022-09-28T13:12:19.795Z,66.83
2022-09-28T13:15:20.094Z,67.46
2022-09-28T13:18:09.171Z,67.46
2022-09-28T13:20:59.613Z,68.06
2022-09-28T13:23:43.693Z,68.84
2022-09-28T13:26:32.028Z,69.88
2022-09-28T13:29:18.438Z,70.27
2022-09-28T13:32:04.126Z,70.91
2022-09-28T13:34:50.683Z,71.13
2022-09-28T13:37:34.844Z,71.43
2022-09-28T13:40:17.649Z,71.94
2022-09-28T13:43:09.828Z,72.68
2022-09-28T13:45:54.779Z,71.04
2022-09-28T13:48:48.918Z,70.79
2022-09-28T13:51:46.788Z,72.05
2022-09-28T13:55:02.681Z,74.72
2022-09-28T13:57:53.252Z,75.77
2022-09-28T14:00:45.683Z,76.90
2022-09-28T14:04:09.810Z,77.77
2022-09-28T14:06:57.371Z,78.02
2022-09-28T14:09:43.192Z,78.81
2022-09-28T14:12:43.246Z,79.98
2022-09-28T14:15:37.511Z,80.48
2022-09-28T14:18:25.828Z,80.56
2022-09-28T14:21:34.399Z,80.83
2022-09-28T14:24:37.290Z,81.35
2022-09-28T14:27:37.620Z,82.01
2022-09-28T14:30:23.367Z,82.09
2022-09-28T14:33:22.510Z,82.85
2022-09-28T14:36:07.793Z,83.59
2022-09-28T14:39:08.823Z,84.13
2022-09-28T14:41:51.843Z,84.61
2022-09-28T14:45:06.329Z,85.17
2022-09-28T14:48:14.413Z,85.62
2022-09-28T14:51:25.087Z,85.73
2022-09-28T14:54:13.024Z,86.03
2022-09-28T14:56:58.295Z,86.03
2022-09-28T14:59:43.749Z,86.45
2022-09-28T15:02:33.043Z,86.47
2022-09-28T15:05:20.512Z,86.76
2022-09-28T15:08:02.876Z,87.19
2022-09-28T15:10:50.271Z,87.04
2022-09-28T15:13:32.402Z,87.17
2022-09-28T15:16:17.274Z,87.54
2022-09-28T15:19:21.150Z,91.04
2022-09-28T15:22:02.973Z,92.51
2022-09-28T15:24:56.641Z,92.28
2022-09-28T15:27:41.611Z,91.32
2022-09-28T15:30:35.095Z,90.55
2022-09-28T15:33:51.075Z,89.74
2022-09-28T15:36:41.295Z,88.95
2022-09-28T15:39:34.294Z,88.31
2022-09-28T15:42:18.538Z,86.03
2022-09-28T15:45:22.794Z,84.87
2022-09-28T15:48:31.173Z,83.94
2022-09-28T15:51:13.747Z,83.96
2022-09-28T15:54:09.425Z,83.89
2022-09-28T15:56:54.979Z,84.11
2022-09-28T15:59:39.418Z,84.68
2022-09-28T16:02:26.090Z,85.23
2022-09-28T16:05:36.338Z,85.47
2022-09-28T16:08:36.809Z,86.27
2022-09-28T16:11:27.582Z,86.59
2022-09-28T16:14:22.482Z,86.93
2022-09-28T16:17:04.477Z,87.20
2022-09-28T16:19:48.833Z,87.48
2022-09-28T16:22:32.978Z,87.45
2022-09-28T16:25:23.966Z,87.60
2022-09-28T16:28:07.114Z,87.84
2022-09-28T16:31:08.011Z,87.97
2022-09-28T16:33:55.936Z,88.08
2022-09-28T16:36:46.673Z,88.23
2022-09-28T16:39:28.803Z,88.48
2022-09-28T16:42:13.046Z,88.38
2022-09-28T16:44:56.859Z,88.58
2022-09-28T16:47:40.322Z,88.99
2022-09-28T16:50:24.235Z,89.05
2022-09-28T16:53:36.674Z,88.58
2022-09-28T16:56:18.878Z,89.01
2022-09-28T16:59:02.938Z,89.19
2022-09-28T17:01:45.072Z,89.68
2022-09-28T17:04:27.431Z,89.50
2022-09-28T17:07:13.703Z,89.84
2022-09-28T17:09:55.856Z,89.58
2022-09-28T17:12:38.648Z,89.73
2022-09-28T17:15:20.544Z,89.68
2022-09-28T17:18:03.157Z,89.80
2022-09-28T17:20:49.661Z,89.69
2022-09-28T17:23:31.434Z,89.85
2022-09-28T17:26:33.712Z,89.78
2022-09-28T17:29:16.651Z,89.86
2022-09-28T17:31:58.307Z,89.81
2022-09-28T17:34:40.037Z,90.02
2022-09-28T17:37:21.712Z,90.10
2022-09-28T17:40:16.725Z,90.02
2022-09-28T17:42:59.208Z,89.90
2022-09-28T17:45:41.163Z,90.27
2022-09-28T17:48:23.677Z,90.10
2022-09-28T17:51:05.767Z,89.75
2022-09-28T17:53:47.535Z,89.91
2022-09-28T17:56:32.364Z,89.94
2022-09-28T17:59:17.683Z,90.43
2022-09-28T18:02:02.172Z,90.86
2022-09-28T18:04:52.605Z,90.76
2022-09-28T18:07:34.583Z,90.80
2022-09-28T18:10:21.844Z,91.09
2022-09-28T18:13:03.537Z,91.38
2022-09-28T18:15:45.265Z,91.32
2022-09-28T18:18:27.630Z,91.27
2022-09-28T18:21:10.451Z,91.33
2022-09-28T18:23:52.552Z,91.62
2022-09-28T18:26:35.370Z,91.89
2022-09-28T18:29:18.851Z,91.96
2022-09-28T18:32:02.747Z,92.21
2022-09-28T18:34:44.544Z,92.27
2022-09-28T18:37:26.843Z,92.68
2022-09-28T18:40:10.070Z,92.84
2022-09-28T18:42:53.061Z,93.01
2022-09-28T18:45:36.527Z,93.11
2022-09-28T18:48:18.931Z,93.26
2022-09-28T18:51:00.623Z,93.34
2022-09-28T18:53:43.135Z,93.36
2022-09-28T18:56:26.565Z,93.48
2022-09-28T18:59:12.369Z,93.59
2022-09-28T19:01:55.382Z,93.50
2022-09-28T19:04:43.022Z,93.61
2022-09-28T19:07:25.438Z,93.64
2022-09-28T19:10:07.886Z,93.74
2022-09-28T19:12:52.071Z,93.84
2022-09-28T19:15:34.751Z,93.88
2022-09-28T19:18:16.886Z,93.90
2022-09-28T19:21:02.995Z,93.94
2022-09-28T19:23:49.803Z,94.09
2022-09-28T19:26:33.734Z,93.96
2022-09-28T19:29:16.259Z,94.08
2022-09-28T19:31:58.345Z,94.04
2022-09-28T19:34:40.038Z,94.05
2022-09-28T19:37:21.830Z,94.14
2022-09-28T19:40:05.979Z,94.26
2022-09-28T19:42:48.386Z,94.08
2022-09-28T19:45:31.000Z,94.14
2022-09-28T19:48:12.690Z,94.24
2022-09-28T19:51:02.860Z,94.28
2022-09-28T19:53:44.570Z,94.36
2022-09-28T19:56:26.263Z,94.11
2022-09-28T19:59:10.412Z,94.40
2022-09-28T20:01:56.128Z,94.46
2022-09-28T20:04:38.029Z,94.25
2022-09-28T20:07:19.681Z,94.04
2022-09-28T20:10:04.032Z,93.92
2022-09-28T20:12:46.442Z,93.88
2022-09-28T20:15:28.895Z,94.06
2022-09-28T20:18:12.531Z,93.98
2022-09-28T20:21:07.919Z,94.09
2022-09-28T20:23:50.102Z,94.38
2022-09-28T20:26:37.528Z,94.33
2022-09-28T20:29:20.960Z,94.34
2022-09-28T20:32:04.218Z,94.03
2022-09-28T20:34:45.997Z,94.22
2022-09-28T20:37:27.671Z,94.34
2022-09-28T20:40:11.167Z,94.18
2022-09-28T20:42:52.793Z,94.24
2022-09-28T20:45:37.634Z,94.31
2022-09-28T20:48:19.862Z,94.38
2022-09-28T20:51:14.147Z,94.56
2022-09-28T20:53:57.476Z,94.50
2022-09-28T20:56:39.476Z,94.48
2022-09-28T20:59:24.444Z,94.56
2022-09-28T21:02:06.133Z,94.47
2022-09-28T21:04:47.826Z,94.30
2022-09-28T21:07:29.515Z,94.31
2022-09-28T21:10:11.206Z,94.16
2022-09-28T21:12:53.408Z,94.17
2022-09-28T21:15:35.115Z,94.26
2022-09-28T21:18:19.249Z,94.25
2022-09-28T21:21:00.940Z,94.31
2022-09-28T21:23:45.067Z,94.28
2022-09-28T21:26:29.250Z,94.43
2022-09-28T21:29:13.387Z,94.45
2022-09-28T21:31:55.178Z,94.46
2022-09-28T21:34:36.973Z,94.48
2022-09-28T21:37:18.662Z,94.52
2022-09-28T21:40:02.611Z,94.60
2022-09-28T21:42:44.297Z,94.59
2022-09-28T21:45:26.192Z,94.55
2022-09-28T21:48:07.883Z,94.50
2022-09-28T21:51:00.127Z,94.68
2022-09-28T21:53:42.750Z,94.74
2022-09-28T21:56:24.426Z,94.63
2022-09-28T21:59:06.121Z,94.56
2022-09-28T22:01:48.382Z,94.74
2022-09-28T22:04:30.112Z,94.60
2022-09-28T22:07:12.314Z,94.71
2022-09-28T22:09:54.007Z,94.87
2022-09-28T22:12:35.697Z,94.92
2022-09-28T22:15:17.490Z,95.06
2022-09-28T22:17:59.181Z,95.05
2022-09-28T22:20:40.872Z,95.05
2022-09-28T22:23:22.564Z,95.19
2022-09-28T22:26:08.200Z,95.26
2022-09-28T22:28:56.009Z,95.29
2022-09-28T22:31:40.146Z,95.35
2022-09-28T22:34:21.770Z,95.38
2022-09-28T22:37:03.816Z,95.46
2022-09-28T22:39:45.509Z,95.51
2022-09-28T22:42:27.199Z,95.49
2022-09-28T22:45:08.891Z,95.65
2022-09-28T22:47:50.640Z,95.77
2022-09-28T22:50:32.272Z,95.82
2022-09-28T22:53:14.373Z,96.07
2022-09-28T22:55:57.906Z,95.95
2022-09-28T22:58:39.597Z,95.98
2022-09-28T23:01:27.178Z,96.03
2022-09-28T23:04:09.431Z,96.12
2022-09-28T23:06:51.121Z,95.98
2022-09-28T23:09:33.119Z,96.06
2022-09-28T23:12:15.015Z,96.01
2022-09-28T23:14:56.637Z,96.06
2022-09-28T23:17:38.297Z,96.23
2022-09-28T23:20:21.112Z,96.39
2022-09-28T23:23:03.362Z,96.42
2022-09-28T23:25:45.004Z,96.65
2022-09-28T23:28:27.415Z,96.53
2022-09-28T23:31:21.429Z,96.71
2022-09-28T23:34:05.463Z,96.76
2022-09-28T23:36:47.539Z,96.73
2022-09-28T23:39:29.230Z,96.70
2022-09-28T23:42:11.024Z,96.80
2022-09-28T23:44:52.714Z,96.84
2022-09-28T23:47:37.477Z,96.97
2022-09-28T23:50:19.167Z,96.97
2022-09-28T23:53:00.895Z,96.76
2022-09-28T23:55:43.574Z,97.17
2022-09-28T23:58:25.983Z,97.17
